createdAt,value
2022-08-18T04:30:11.787Z,86.21
2022-08-18T04:33:14.999Z,86.21
2022-08-18T04:36:20.668Z,87.96
2022-08-18T04:39:24.252Z,87.52
2022-08-18T04:42:26.767Z,87.41
2022-08-18T04:45:30.030Z,87.21
2022-08-18T04:48:40.087Z,86.67
2022-08-18T04:52:27.016Z,86.26
2022-08-18T04:55:31.899Z,86.45
2022-08-18T04:58:35.709Z,85.75
2022-08-18T05:01:45.907Z,85.30
2022-08-18T05:04:48.974Z,84.52
2022-08-18T05:07:51.597Z,83.77
2022-08-18T05:11:03.523Z,83.23
2022-08-18T05:14:08.580Z,82.39
2022-08-18T05:17:13.758Z,81.92
2022-08-18T05:20:16.702Z,81.15
2022-08-18T05:23:21.675Z,80.45
2022-08-18T05:26:26.337Z,79.70
2022-08-18T05:29:37.950Z,78.51
2022-08-18T05:32:48.273Z,77.71
2022-08-18T05:36:03.516Z,76.26
2022-08-18T05:39:17.883Z,75.29
2022-08-18T05:42:23.166Z,73.64
2022-08-18T05:45:27.241Z,73.35
2022-08-18T05:48:30.003Z,70.88
2022-08-18T05:51:42.226Z,69.67
2022-08-18T05:55:20.562Z,67.77
2022-08-18T05:58:32.987Z,66.72
2022-08-18T06:01:44.257Z,65.95
2022-08-18T06:04:57.709Z,65.17
2022-08-18T06:08:07.129Z,64.69
2022-08-18T06:11:17.149Z,63.80
2022-08-18T06:14:25.346Z,61.85
2022-08-18T06:17:57.439Z,60.56
2022-08-18T06:21:14.232Z,58.63
2022-08-18T06:24:28.651Z,56.17
2022-08-18T06:27:46.402Z,56.79
2022-08-18T06:31:18.534Z,56.73
2022-08-18T06:34:24.418Z,57.42
2022-08-18T06:38:07.078Z,57.59
2022-08-18T06:41:37.977Z,58.13
2022-08-18T06:44:53.467Z,57.21
2022-08-18T06:48:15.357Z,56.42
2022-08-18T06:51:21.263Z,55.37
2022-08-18T06:54:28.038Z,53.77
2022-08-18T06:57:38.291Z,51.43
2022-08-18T07:00:49.596Z,49.32
2022-08-18T07:03:56.683Z,49.44
2022-08-18T07:06:59.236Z,50.21
2022-08-18T07:10:06.025Z,51.05
2022-08-18T07:13:22.603Z,51.30
2022-08-18T07:16:57.193Z,50.60
2022-08-18T07:20:00.543Z,47.84
2022-08-18T07:23:08.267Z,47.16
2022-08-18T07:26:15.239Z,47.65
2022-08-18T07:29:18.682Z,48.94
2022-08-18T07:32:23.013Z,47.83
2022-08-18T07:35:39.192Z,47.18
2022-08-18T07:39:15.367Z,47.91
2022-08-18T07:42:59.228Z,48.48
2022-08-18T07:46:12.209Z,47.44
2022-08-18T07:49:22.237Z,46.93
2022-08-18T07:52:46.840Z,45.96
2022-08-18T07:55:59.042Z,44.88
2022-08-18T07:59:27.443Z,44.66
2022-08-18T08:02:44.396Z,42.98
2022-08-18T08:06:08.837Z,41.75
2022-08-18T08:09:26.123Z,40.33
2022-08-18T08:12:51.259Z,39.54
2022-08-18T08:16:15.445Z,37.74
2022-08-18T08:20:03.941Z,38.29
2022-08-18T08:23:24.119Z,37.13
2022-08-18T08:26:42.742Z,36.21
2022-08-18T08:29:50.780Z,35.22
2022-08-18T08:33:14.108Z,35.03
2022-08-18T08:36:30.734Z,34.81
2022-08-18T08:40:02.856Z,33.99
2022-08-18T08:43:11.672Z,34.71
2022-08-18T08:46:23.590Z,32.54
2022-08-18T08:49:37.649Z,33.55
2022-08-18T08:52:50.300Z,32.63
2022-08-18T08:56:02.178Z,32.75
2022-08-18T08:59:09.770Z,33.07
2022-08-18T09:02:47.155Z,31.50
2022-08-18T09:05:59.856Z,31.54
2022-08-18T09:09:20.712Z,31.13
2022-08-18T09:12:48.087Z,30.24
2022-08-18T09:16:13.384Z,28.72
2022-08-18T09:19:47.856Z,29.22
2022-08-18T09:26:39.490Z,29.40
2022-08-18T09:29:52.444Z,28.62
2022-08-18T09:33:45.989Z,28.18
2022-08-18T09:37:10.098Z,27.25
2022-08-18T09:41:01.943Z,25.90
2022-08-18T09:47:37.438Z,27.08
2022-08-18T09:50:57.576Z,26.81
2022-08-18T09:54:13.701Z,27.25
2022-08-18T09:57:27.113Z,27.61
2022-08-18T10:00:33.432Z,27.00
2022-08-18T10:03:36.631Z,25.03
2022-08-18T10:06:43.007Z,24.41
2022-08-18T10:11:00.066Z,22.61
2022-08-18T10:13:39.226Z,20.88
2022-08-18T10:17:23.977Z,20.77
2022-08-18T10:20:47.420Z,22.80
2022-08-18T10:24:36.635Z,23.97
2022-08-18T10:27:44.554Z,23.65
2022-08-18T10:31:06.139Z,24.55
2022-08-18T10:34:19.082Z,25.50
2022-08-18T10:37:32.464Z,24.37
2022-08-18T10:40:36.832Z,23.84
2022-08-18T10:43:57.408Z,21.75
2022-08-18T10:47:01.167Z,20.11
2022-08-18T10:50:09.484Z,18.69
2022-08-18T10:53:39.895Z,19.54
2022-08-18T10:56:52.304Z,19.85
2022-08-18T11:00:13.446Z,21.30
2022-08-18T11:03:51.163Z,23.83
2022-08-18T11:07:08.480Z,24.33
2022-08-18T11:10:57.878Z,24.04
2022-08-18T11:14:14.704Z,24.29
2022-08-18T11:17:40.526Z,24.50
2022-08-18T11:20:47.271Z,23.75
2022-08-18T11:24:07.715Z,23.85
2022-08-18T11:27:24.732Z,24.80
2022-08-18T11:30:35.195Z,21.99
2022-08-18T11:33:41.947Z,21.50
2022-08-18T11:36:59.267Z,21.81
2022-08-18T11:40:05.868Z,21.76
2022-08-18T11:43:24.389Z,21.88
2022-08-18T11:46:37.081Z,22.44
2022-08-18T11:49:57.125Z,22.97
2022-08-18T11:53:15.228Z,23.12
2022-08-18T11:56:21.124Z,23.32
2022-08-18T11:59:53.064Z,22.70
2022-08-18T12:03:15.580Z,22.63
2022-08-18T12:06:27.958Z,21.52
2022-08-18T12:13:00.590Z,23.09
2022-08-18T12:16:30.521Z,23.03
2022-08-18T12:19:34.367Z,23.40
2022-08-18T12:22:40.727Z,23.31
2022-08-18T12:25:43.506Z,23.04
2022-08-18T12:28:46.471Z,23.95
2022-08-18T12:31:52.218Z,24.22
2022-08-18T12:34:56.198Z,23.96
2022-08-18T12:38:08.235Z,23.88
2022-08-18T12:41:22.912Z,24.55
2022-08-18T12:44:27.326Z,23.77
2022-08-18T12:47:31.246Z,23.87
2022-08-18T12:50:49.743Z,24.50
2022-08-18T12:53:59.394Z,24.87
2022-08-18T12:57:06.791Z,25.02
2022-08-18T13:00:10.369Z,24.60
2022-08-18T13:03:19.648Z,25.29
2022-08-18T13:06:27.621Z,25.50
2022-08-18T13:09:34.910Z,25.33
2022-08-18T13:12:50.827Z,25.12
2022-08-18T13:15:58.667Z,25.44
2022-08-18T13:19:10.800Z,25.10
2022-08-18T13:22:13.724Z,25.29
2022-08-18T13:25:32.571Z,25.12
2022-08-18T13:28:50.861Z,24.38
2022-08-18T13:32:00.496Z,24.18
2022-08-18T13:35:13.260Z,24.23
2022-08-18T13:38:22.051Z,24.18
2022-08-18T13:41:32.346Z,24.96
2022-08-18T13:44:35.357Z,24.93
2022-08-18T13:47:39.490Z,24.76
2022-08-18T13:50:45.268Z,24.92
2022-08-18T13:54:17.398Z,24.90
2022-08-18T13:57:12.466Z,25.20
2022-08-18T14:00:27.748Z,25.05
2022-08-18T14:03:46.801Z,24.67
2022-08-18T14:06:56.877Z,24.53
2022-08-18T14:10:00.975Z,24.76
2022-08-18T14:13:20.230Z,24.81
2022-08-18T14:16:28.089Z,25.05
2022-08-18T14:19:49.346Z,24.83
2022-08-18T14:23:21.533Z,24.99
2022-08-18T14:26:45.967Z,25.00
2022-08-18T14:29:53.483Z,25.08
2022-08-18T14:32:58.736Z,24.91
2022-08-18T14:36:09.374Z,25.02
2022-08-18T14:39:13.141Z,25.16
2022-08-18T14:42:18.986Z,25.12
2022-08-18T14:45:31.507Z,25.20
2022-08-18T14:48:37.322Z,25.67
2022-08-18T14:51:42.875Z,25.14
2022-08-18T14:54:50.988Z,24.89
2022-08-18T14:57:54.071Z,25.01
2022-08-18T15:01:10.523Z,24.90
2022-08-18T15:04:18.513Z,24.79
2022-08-18T15:07:24.087Z,25.18
2022-08-18T15:10:28.133Z,25.26
2022-08-18T15:13:32.109Z,25.13
